Time;durP1;ratioP1;P1;durP2;ratioP2;P2;SDS_P1;SDS_P2;PMS_P1;PMS_P2;Temp;Humidity;BMP_temperature;BMP_pressure;BME280_temperature;BME280_humidity;BME280_pressure;Samples;Min_cycle;Max_cycle;Signal;HPM_P1;HPM_P2
2023/04/29 00:01:03;;;;;;;26.57;20.10;;;;;;;;;;5098699;28;20936;-63
2023/04/29 00:03:31;;;;;;;29.53;21.50;;;;;;;;;;5101304;28;20940;-63
2023/04/29 00:05:57;;;;;;;32.00;22.90;;;;;;;;;;5100942;27;20475;-63
2023/04/29 00:08:24;;;;;;;27.77;20.50;;;;;;;;;;5099808;28;20455;-63
2023/04/29 00:10:50;;;;;;;29.23;21.90;;;;;;;;;;5100641;28;21089;-63
2023/04/29 00:13:17;;;;;;;28.60;21.13;;;;;;;;;;5100244;28;20494;-63
2023/04/29 00:15:45;;;;;;;29.40;23.50;;;;;;;;;;5097970;28;20483;-64
2023/04/29 00:18:12;;;;;;;28.97;21.97;;;;;;;;;;5100787;28;20474;-64
2023/04/29 00:20:39;;;;;;;35.17;25.23;;;;;;;;;;5099463;28;20462;-64
2023/04/29 00:23:06;;;;;;;32.17;24.30;;;;;;;;;;5100673;28;20558;-64
2023/04/29 00:25:32;;;;;;;31.23;23.57;;;;;;;;;;5100338;27;20930;-64
2023/04/29 00:28:00;;;;;;;29.40;22.47;;;;;;;;;;5104117;28;20447;-64
2023/04/29 00:30:27;;;;;;;30.33;23.87;;;;;;;;;;5104956;28;21108;-64
2023/04/29 00:32:55;;;;;;;30.47;22.20;;;;;;;;;;5104658;28;20483;-64
2023/04/29 00:35:22;;;;;;;29.87;22.80;;;;;;;;;;5108966;28;20490;-63
2023/04/29 00:37:48;;;;;;;29.57;22.10;;;;;;;;;;5107429;28;20480;-63
2023/04/29 00:40:15;;;;;;;35.20;24.83;;;;;;;;;;5104049;28;20502;-64
2023/04/29 00:42:41;;;;;;;39.97;26.23;;;;;;;;;;5104707;28;20454;-64
2023/04/29 00:45:10;;;;;;;42.60;26.73;;;;;;;;;;5103950;28;20450;-64
2023/04/29 00:47:36;;;;;;;37.07;23.90;;;;;;;;;;5104747;28;20450;-64
2023/04/29 00:50:05;;;;;;;38.53;26.10;;;;;;;;;;5103570;28;20486;-64
2023/04/29 00:52:31;;;;;;;43.00;27.70;;;;;;;;;;5103773;28;20590;-64
2023/04/29 00:54:58;;;;;;;36.77;26.90;;;;;;;;;;5108068;28;20474;-65
2023/04/29 00:57:27;;;;;;;38.30;25.83;;;;;;;;;;5103784;27;20994;-64
2023/04/29 00:59:54;;;;;;;43.90;29.20;;;;;;;;;;5104093;28;20482;-64
2023/04/29 01:02:20;;;;;;;41.23;26.83;;;;;;;;;;5103873;28;20502;-64
2023/04/29 01:04:47;;;;;;;39.00;27.20;;;;;;;;;;5104082;28;20504;-64
2023/04/29 01:07:17;;;;;;;42.10;28.40;;;;;;;;;;5103434;28;20491;-64
2023/04/29 01:09:49;;;;;;;43.53;27.60;;;;;;;;;;5103824;28;20466;-64
2023/04/29 01:12:21;;;;;;;45.30;28.13;;;;;;;;;;5104099;28;21013;-64
2023/04/29 01:14:50;;;;;;;45.30;29.03;;;;;;;;;;5116314;28;20991;-64
2023/04/29 01:17:19;;;;;;;44.90;28.67;;;;;;;;;;5105046;28;20557;-64
2023/04/29 01:19:47;;;;;;;47.30;29.60;;;;;;;;;;5103246;28;20443;-64
2023/04/29 01:22:17;;;;;;;48.73;28.50;;;;;;;;;;5103524;28;21015;-64
2023/04/29 01:24:45;;;;;;;48.43;28.80;;;;;;;;;;5103390;28;20483;-63
2023/04/29 01:27:18;;;;;;;47.63;29.10;;;;;;;;;;5103418;28;20467;-63
2023/04/29 01:29:50;;;;;;;49.80;31.97;;;;;;;;;;5095445;28;20514;-63
2023/04/29 01:32:17;;;;;;;48.83;31.03;;;;;;;;;;5103151;28;20502;-64
2023/04/29 01:34:47;;;;;;;47.53;29.20;;;;;;;;;;5103773;28;20451;-64
2023/04/29 01:37:17;;;;;;;57.33;32.23;;;;;;;;;;5102785;28;20513;-63
2023/04/29 01:39:48;;;;;;;53.97;33.60;;;;;;;;;;5102698;28;20518;-63
2023/04/29 01:42:16;;;;;;;54.57;32.87;;;;;;;;;;5102771;28;20526;-64
2023/04/29 01:44:43;;;;;;;59.23;34.47;;;;;;;;;;5102598;28;20473;-64
2023/04/29 01:47:13;;;;;;;57.57;34.47;;;;;;;;;;5111397;27;21009;-65
2023/04/29 01:49:39;;;;;;;64.53;35.40;;;;;;;;;;5101952;28;20451;-64
2023/04/29 01:52:06;;;;;;;64.87;37.13;;;;;;;;;;5093938;28;20510;-64
2023/04/29 01:54:35;;;;;;;60.27;34.17;;;;;;;;;;5102292;28;20823;-64
2023/04/29 01:57:03;;;;;;;57.90;32.33;;;;;;;;;;5106125;28;20486;-64
2023/04/29 01:59:29;;;;;;;55.70;31.27;;;;;;;;;;5102958;28;20447;-64
2023/04/29 02:01:57;;;;;;;56.53;31.57;;;;;;;;;;5102314;28;20553;-64
2023/04/29 02:04:24;;;;;;;61.17;34.17;;;;;;;;;;5102122;28;20462;-64
2023/04/29 02:06:51;;;;;;;55.33;32.30;;;;;;;;;;5111357;28;20482;-64
2023/04/29 02:09:17;;;;;;;57.47;34.13;;;;;;;;;;5101879;28;20562;-64
2023/04/29 02:11:44;;;;;;;54.57;29.10;;;;;;;;;;5101678;28;20475;-64
2023/04/29 02:14:12;;;;;;;54.83;30.50;;;;;;;;;;5104787;28;20485;-64
2023/04/29 02:16:38;;;;;;;56.27;31.43;;;;;;;;;;5101170;28;20842;-64
2023/04/29 02:19:05;;;;;;;49.60;28.67;;;;;;;;;;5102216;28;20474;-64
2023/04/29 02:21:31;;;;;;;51.30;28.50;;;;;;;;;;5101350;28;20510;-64
2023/04/29 02:23:58;;;;;;;50.83;27.90;;;;;;;;;;5101163;28;20478;-64
2023/04/29 02:26:24;;;;;;;45.17;27.37;;;;;;;;;;5101543;28;20494;-64
2023/04/29 02:28:51;;;;;;;49.70;26.53;;;;;;;;;;5107597;28;21041;-65
2023/04/29 02:31:19;;;;;;;49.00;27.70;;;;;;;;;;5101587;28;20479;-65
2023/04/29 02:33:45;;;;;;;46.00;26.60;;;;;;;;;;5101758;28;20519;-65
2023/04/29 02:36:12;;;;;;;45.53;27.60;;;;;;;;;;5101875;28;20505;-65
2023/04/29 02:38:38;;;;;;;45.10;25.27;;;;;;;;;;5101238;28;20504;-64
2023/04/29 02:41:05;;;;;;;40.03;25.97;;;;;;;;;;5102013;27;20511;-64
2023/04/29 02:43:31;;;;;;;50.10;26.53;;;;;;;;;;5101905;28;20451;-64
2023/04/29 02:45:57;;;;;;;44.73;26.17;;;;;;;;;;5100594;28;21095;-64
2023/04/29 02:48:25;;;;;;;40.80;24.80;;;;;;;;;;5101332;28;21159;-64
2023/04/29 02:50:52;;;;;;;44.73;26.03;;;;;;;;;;5087650;28;20471;-65
2023/04/29 02:53:19;;;;;;;42.33;26.30;;;;;;;;;;5101715;28;20522;-64
2023/04/29 02:55:46;;;;;;;45.50;25.37;;;;;;;;;;5101627;28;20466;-64
2023/04/29 02:58:12;;;;;;;39.30;24.67;;;;;;;;;;5103113;28;20439;-64
2023/04/29 03:00:40;;;;;;;42.13;24.80;;;;;;;;;;5108956;28;21181;-65
2023/04/29 03:03:07;;;;;;;46.10;25.90;;;;;;;;;;5102286;28;20466;-65
2023/04/29 03:05:35;;;;;;;44.47;26.50;;;;;;;;;;5101591;28;21012;-65
2023/04/29 03:08:03;;;;;;;44.47;25.60;;;;;;;;;;5100891;28;20455;-65
2023/04/29 03:10:29;;;;;;;47.10;27.57;;;;;;;;;;5100355;28;20470;-64
2023/04/29 03:12:56;;;;;;;42.03;26.87;;;;;;;;;;5101754;28;20542;-65
2023/04/29 03:15:22;;;;;;;52.73;30.00;;;;;;;;;;5101049;28;20446;-67
2023/04/29 03:17:49;;;;;;;44.07;27.43;;;;;;;;;;5101139;28;20956;-64
2023/04/29 03:20:15;;;;;;;45.20;28.10;;;;;;;;;;5093453;28;20467;-64
2023/04/29 03:22:43;;;;;;;49.40;29.80;;;;;;;;;;5101001;28;20482;-63
2023/04/29 03:25:10;;;;;;;47.87;27.50;;;;;;;;;;5101615;28;20486;-64
2023/04/29 03:27:37;;;;;;;45.10;24.90;;;;;;;;;;5101576;28;20467;-64
2023/04/29 03:30:03;;;;;;;37.20;25.67;;;;;;;;;;5102003;28;20451;-65
2023/04/29 03:32:30;;;;;;;40.53;25.97;;;;;;;;;;5100845;28;20518;-65
2023/04/29 03:34:56;;;;;;;42.93;27.03;;;;;;;;;;5101563;28;20492;-64
2023/04/29 03:37:22;;;;;;;41.80;27.97;;;;;;;;;;5100766;28;20508;-65
2023/04/29 03:39:50;;;;;;;43.70;27.43;;;;;;;;;;5100846;28;20517;-65
2023/04/29 03:42:17;;;;;;;40.40;27.50;;;;;;;;;;5100657;28;20474;-65
2023/04/29 03:44:43;;;;;;;43.40;29.03;;;;;;;;;;5106051;28;20479;-65
2023/04/29 03:47:09;;;;;;;42.47;25.37;;;;;;;;;;5100416;28;20518;-65
2023/04/29 03:49:36;;;;;;;38.33;24.73;;;;;;;;;;5099199;28;20534;-65
2023/04/29 03:52:03;;;;;;;37.97;24.10;;;;;;;;;;5100873;28;20731;-65
2023/04/29 03:54:30;;;;;;;39.70;25.37;;;;;;;;;;5100406;28;20868;-65
2023/04/29 03:56:57;;;;;;;38.50;23.23;;;;;;;;;;5100024;28;20911;-65
2023/04/29 03:59:24;;;;;;;39.07;24.07;;;;;;;;;;5101495;28;20471;-65
2023/04/29 04:01:52;;;;;;;37.13;24.30;;;;;;;;;;5102129;28;20478;-65
2023/04/29 04:04:19;;;;;;;38.97;26.80;;;;;;;;;;5105293;28;20490;-65
2023/04/29 04:06:50;;;;;;;37.27;25.57;;;;;;;;;;5104647;28;20462;-65
2023/04/29 04:09:16;;;;;;;39.03;26.53;;;;;;;;;;5104865;28;20459;-65
2023/04/29 04:11:43;;;;;;;46.60;29.93;;;;;;;;;;5104684;28;20514;-65
2023/04/29 04:14:10;;;;;;;46.70;30.70;;;;;;;;;;5105162;28;20455;-65
2023/04/29 04:16:37;;;;;;;53.10;31.03;;;;;;;;;;5104441;28;20995;-65
2023/04/29 04:19:03;;;;;;;46.23;29.70;;;;;;;;;;5104494;28;20817;-65
2023/04/29 04:21:30;;;;;;;50.60;32.97;;;;;;;;;;5104271;28;20555;-65
2023/04/29 04:23:56;;;;;;;51.03;33.20;;;;;;;;;;5104591;28;20477;-65
2023/04/29 04:26:23;;;;;;;55.90;33.97;;;;;;;;;;5104696;28;20467;-65
2023/04/29 04:28:49;;;;;;;50.77;32.77;;;;;;;;;;5105197;28;20451;-65
2023/04/29 04:31:17;;;;;;;50.87;33.40;;;;;;;;;;5104576;28;20897;-65
2023/04/29 04:33:43;;;;;;;53.20;34.43;;;;;;;;;;5104758;28;20569;-65
2023/04/29 04:36:10;;;;;;;54.30;34.37;;;;;;;;;;5103880;28;20495;-65
2023/04/29 04:38:36;;;;;;;52.53;34.00;;;;;;;;;;5103210;28;20551;-65
2023/04/29 04:41:06;;;;;;;51.30;34.43;;;;;;;;;;5104033;28;20502;-65
2023/04/29 04:43:32;;;;;;;53.90;35.73;;;;;;;;;;5104523;28;20458;-65
2023/04/29 04:45:59;;;;;;;51.80;34.93;;;;;;;;;;5102498;28;21127;-65
2023/04/29 04:48:26;;;;;;;54.43;33.30;;;;;;;;;;5103958;28;20482;-65
2023/04/29 04:50:53;;;;;;;55.83;34.70;;;;;;;;;;5103378;28;20558;-65
2023/04/29 04:53:19;;;;;;;45.27;30.93;;;;;;;;;;5103753;28;21029;-65
2023/04/29 04:55:46;;;;;;;46.13;28.37;;;;;;;;;;5104173;27;20498;-65
2023/04/29 04:58:12;;;;;;;41.13;26.00;;;;;;;;;;5097953;28;20962;-64
2023/04/29 05:00:43;;;;;;;41.50;26.57;;;;;;;;;;5104464;28;20486;-65
2023/04/29 05:03:09;;;;;;;41.97;28.00;;;;;;;;;;5112924;28;20461;-68
2023/04/29 05:05:37;;;;;;;38.00;27.23;;;;;;;;;;5105223;28;20466;-67
2023/04/29 05:08:04;;;;;;;39.93;27.27;;;;;;;;;;5097167;28;20450;-65
2023/04/29 05:10:32;;;;;;;40.13;26.57;;;;;;;;;;5107272;28;20459;-65
2023/04/29 05:12:58;;;;;;;38.60;27.57;;;;;;;;;;5103051;28;20475;-65
2023/04/29 05:15:26;;;;;;;37.20;26.77;;;;;;;;;;5102547;28;20447;-66
2023/04/29 05:17:52;;;;;;;40.53;27.13;;;;;;;;;;5101352;28;20527;-66
2023/04/29 05:20:19;;;;;;;40.67;25.20;;;;;;;;;;5108708;28;20466;-66
2023/04/29 05:22:47;;;;;;;39.47;26.13;;;;;;;;;;5103418;28;20443;-66
2023/04/29 05:25:13;;;;;;;36.13;25.40;;;;;;;;;;5101079;28;20522;-66
2023/04/29 05:27:40;;;;;;;36.57;26.23;;;;;;;;;;5111072;28;20495;-66
2023/04/29 05:30:06;;;;;;;40.17;26.83;;;;;;;;;;5110148;28;20518;-66
2023/04/29 05:32:33;;;;;;;38.67;27.70;;;;;;;;;;5106808;28;20518;-68
2023/04/29 05:34:59;;;;;;;38.50;27.57;;;;;;;;;;5104722;28;20462;-68
2023/04/29 05:37:29;;;;;;;37.70;26.93;;;;;;;;;;5103323;28;20487;-67
2023/04/29 05:39:57;;;;;;;37.37;26.73;;;;;;;;;;5107678;28;20490;-67
2023/04/29 05:42:24;;;;;;;39.00;26.60;;;;;;;;;;5109984;28;20490;-66
2023/04/29 05:44:50;;;;;;;39.23;27.77;;;;;;;;;;5109539;28;20454;-68
2023/04/29 05:47:17;;;;;;;38.50;26.40;;;;;;;;;;5104762;28;20486;-64
2023/04/29 05:49:43;;;;;;;43.37;28.40;;;;;;;;;;5104638;28;21025;-64
2023/04/29 05:52:10;;;;;;;38.83;28.17;;;;;;;;;;5112002;28;20499;-65
2023/04/29 05:54:37;;;;;;;39.73;27.30;;;;;;;;;;5103624;28;20516;-65
2023/04/29 05:57:05;;;;;;;41.30;28.00;;;;;;;;;;5103539;28;20590;-65
2023/04/29 05:59:31;;;;;;;39.60;27.90;;;;;;;;;;5104297;28;20450;-65
2023/04/29 06:01:58;;;;;;;43.20;28.00;;;;;;;;;;5103341;28;21070;-65
2023/04/29 06:04:24;;;;;;;41.13;29.60;;;;;;;;;;5102661;28;20509;-66
2023/04/29 06:06:50;;;;;;;39.87;27.07;;;;;;;;;;5103485;28;20482;-65
2023/04/29 06:09:17;;;;;;;36.70;26.83;;;;;;;;;;5103797;28;20553;-65
2023/04/29 06:11:44;;;;;;;40.53;27.57;;;;;;;;;;5103496;28;20482;-65
2023/04/29 06:14:12;;;;;;;40.57;29.87;;;;;;;;;;5107923;28;20551;-66
2023/04/29 06:16:39;;;;;;;44.47;30.90;;;;;;;;;;5103289;28;20500;-65
2023/04/29 06:19:05;;;;;;;42.93;30.33;;;;;;;;;;5102531;28;20444;-64
2023/04/29 06:21:32;;;;;;;40.10;29.00;;;;;;;;;;5102435;28;20507;-64
2023/04/29 06:23:58;;;;;;;38.97;29.80;;;;;;;;;;5105602;28;20490;-64
2023/04/29 06:26:24;;;;;;;40.27;29.10;;;;;;;;;;5106366;28;20486;-64
2023/04/29 06:28:51;;;;;;;41.47;28.47;;;;;;;;;;5104875;28;20451;-64
2023/04/29 06:31:19;;;;;;;41.37;29.60;;;;;;;;;;5114311;28;20482;-64
2023/04/29 06:33:45;;;;;;;46.10;30.93;;;;;;;;;;5102943;28;20578;-64
2023/04/29 06:36:12;;;;;;;40.03;30.80;;;;;;;;;;5106424;28;20554;-64
2023/04/29 06:38:38;;;;;;;36.27;28.27;;;;;;;;;;5109237;28;20518;-64
2023/04/29 06:41:05;;;;;;;41.73;29.50;;;;;;;;;;5105576;28;20489;-64
2023/04/29 06:43:31;;;;;;;47.53;33.03;;;;;;;;;;5103500;28;20486;-64
2023/04/29 06:45:57;;;;;;;47.73;32.47;;;;;;;;;;5101694;28;20494;-64
2023/04/29 06:48:26;;;;;;;45.20;33.00;;;;;;;;;;5108844;28;20455;-64
2023/04/29 06:50:53;;;;;;;43.97;30.30;;;;;;;;;;5107147;28;20914;-64
2023/04/29 06:53:19;;;;;;;44.03;31.67;;;;;;;;;;5094350;28;20597;-64
2023/04/29 06:55:46;;;;;;;44.60;31.90;;;;;;;;;;5096507;28;20574;-64
2023/04/29 06:58:12;;;;;;;41.70;30.37;;;;;;;;;;5096962;28;20541;-64
2023/04/29 07:00:39;;;;;;;42.03;31.37;;;;;;;;;;5099078;27;20482;-64
2023/04/29 07:03:05;;;;;;;47.80;31.87;;;;;;;;;;5096026;28;20480;-64
2023/04/29 07:05:33;;;;;;;46.70;33.90;;;;;;;;;;5098170;28;20480;-64
2023/04/29 07:07:59;;;;;;;44.73;33.43;;;;;;;;;;5110457;28;20462;-64
2023/04/29 07:10:26;;;;;;;46.13;33.50;;;;;;;;;;5104036;28;20459;-67
2023/04/29 07:12:53;;;;;;;41.63;30.43;;;;;;;;;;5103259;28;20532;-67
2023/04/29 07:15:19;;;;;;;46.23;33.43;;;;;;;;;;5102392;27;20448;-68
2023/04/29 07:17:46;;;;;;;40.43;29.40;;;;;;;;;;5099674;28;20486;-67
2023/04/29 07:20:13;;;;;;;41.00;30.77;;;;;;;;;;5100896;27;20490;-67
2023/04/29 07:22:40;;;;;;;35.73;27.60;;;;;;;;;;5101334;28;20455;-66
2023/04/29 07:25:07;;;;;;;37.80;29.13;;;;;;;;;;5099309;28;20521;-69
2023/04/29 07:27:34;;;;;;;35.70;28.87;;;;;;;;;;5104799;28;20486;-67
2023/04/29 07:30:01;;;;;;;34.67;27.50;;;;;;;;;;5100803;28;20454;-67
2023/04/29 07:32:27;;;;;;;36.43;28.50;;;;;;;;;;5101629;28;20512;-67
2023/04/29 07:34:53;;;;;;;37.53;28.23;;;;;;;;;;5101572;28;20455;-67
2023/04/29 07:37:20;;;;;;;35.20;28.40;;;;;;;;;;5102032;28;21005;-67
2023/04/29 07:39:48;;;;;;;36.63;29.23;;;;;;;;;;5099761;28;20497;-67
2023/04/29 07:42:14;;;;;;;35.50;29.07;;;;;;;;;;5102898;27;20526;-67
2023/04/29 07:44:41;;;;;;;35.30;27.20;;;;;;;;;;5101726;28;20483;-67
2023/04/29 07:47:07;;;;;;;31.70;27.33;;;;;;;;;;5100697;28;20518;-67
2023/04/29 07:49:34;;;;;;;35.63;27.40;;;;;;;;;;5100018;28;20447;-67
2023/04/29 07:52:01;;;;;;;33.13;28.40;;;;;;;;;;5106874;28;20539;-67
2023/04/29 07:54:27;;;;;;;36.70;30.10;;;;;;;;;;5103697;28;20915;-66
2023/04/29 07:56:57;;;;;;;30.53;26.33;;;;;;;;;;5107940;28;20474;-67
2023/04/29 07:59:24;;;;;;;33.87;27.20;;;;;;;;;;5109797;28;20450;-66
2023/04/29 08:01:51;;;;;;;38.37;28.37;;;;;;;;;;5110426;27;20469;-66
2023/04/29 08:04:18;;;;;;;33.67;27.50;;;;;;;;;;5109880;28;20462;-66
2023/04/29 08:06:44;;;;;;;34.77;26.73;;;;;;;;;;5103416;28;20834;-66
2023/04/29 08:09:10;;;;;;;37.17;28.93;;;;;;;;;;5107841;28;20490;-66
2023/04/29 08:11:38;;;;;;;36.10;27.33;;;;;;;;;;5106093;28;20474;-66
2023/04/29 08:14:06;;;;;;;38.87;28.00;;;;;;;;;;5105850;28;20558;-67
2023/04/29 08:16:33;;;;;;;36.20;29.13;;;;;;;;;;5103096;27;20474;-66
2023/04/29 08:18:59;;;;;;;36.70;29.90;;;;;;;;;;5100987;28;20455;-67
2023/04/29 08:21:26;;;;;;;36.83;28.27;;;;;;;;;;5100338;28;20594;-66
2023/04/29 08:23:54;;;;;;;34.63;29.43;;;;;;;;;;5104127;28;20454;-66
2023/04/29 08:26:21;;;;;;;38.23;28.77;;;;;;;;;;5101965;28;20478;-66
2023/04/29 08:28:47;;;;;;;39.37;30.97;;;;;;;;;;5100614;28;20490;-66
2023/04/29 08:31:17;;;;;;;36.53;29.40;;;;;;;;;;5100788;28;20475;-66
2023/04/29 08:33:44;;;;;;;39.20;30.73;;;;;;;;;;5101095;28;20820;-68
2023/04/29 08:36:13;;;;;;;34.50;28.80;;;;;;;;;;5096788;28;20540;-69
2023/04/29 08:38:39;;;;;;;36.03;28.70;;;;;;;;;;5103838;28;20494;-65
2023/04/29 08:41:07;;;;;;;35.30;28.93;;;;;;;;;;5099085;28;20486;-66
2023/04/29 08:43:35;;;;;;;36.40;29.60;;;;;;;;;;5100100;28;20469;-66
2023/04/29 08:46:02;;;;;;;30.37;26.13;;;;;;;;;;5100209;28;20467;-66
2023/04/29 08:48:30;;;;;;;35.10;27.17;;;;;;;;;;5102708;28;20477;-66
2023/04/29 08:50:57;;;;;;;30.40;27.00;;;;;;;;;;5103201;28;20467;-66
2023/04/29 08:53:24;;;;;;;29.53;24.00;;;;;;;;;;5104070;28;20483;-67
2023/04/29 08:55:51;;;;;;;29.00;24.83;;;;;;;;;;5103594;28;20477;-67
2023/04/29 08:58:18;;;;;;;28.73;23.80;;;;;;;;;;5100129;28;20526;-66
2023/04/29 09:00:45;;;;;;;26.87;22.50;;;;;;;;;;5101335;28;20776;-65
2023/04/29 09:03:14;;;;;;;24.70;21.90;;;;;;;;;;5102453;28;20447;-66
2023/04/29 09:05:43;;;;;;;27.63;22.37;;;;;;;;;;5100405;28;20537;-66
2023/04/29 09:08:11;;;;;;;25.87;23.17;;;;;;;;;;5100573;28;20483;-66
2023/04/29 09:10:38;;;;;;;23.77;21.20;;;;;;;;;;5099232;28;20843;-67
2023/04/29 09:13:05;;;;;;;24.40;21.67;;;;;;;;;;5104780;28;20574;-66
2023/04/29 09:15:35;;;;;;;24.73;21.23;;;;;;;;;;5108860;28;20965;-66
2023/04/29 09:18:01;;;;;;;23.73;20.97;;;;;;;;;;5103959;28;20520;-66
2023/04/29 09:20:31;;;;;;;25.17;22.20;;;;;;;;;;5106183;28;20466;-66
2023/04/29 09:23:01;;;;;;;25.60;21.60;;;;;;;;;;5100570;28;20451;-66
2023/04/29 09:25:28;;;;;;;30.00;21.50;;;;;;;;;;5108522;28;20463;-67
2023/04/29 09:27:54;;;;;;;25.40;21.67;;;;;;;;;;5110253;28;20498;-70
2023/04/29 09:30:21;;;;;;;23.27;20.17;;;;;;;;;;5100628;28;20470;-68
2023/04/29 09:33:04;;;;;;;24.93;22.00;;;;;;;;;;5096828;28;20476;-67
2023/04/29 09:35:30;;;;;;;24.10;19.30;;;;;;;;;;5105436;28;20829;-67
2023/04/29 09:38:08;;;;;;;21.80;19.57;;;;;;;;;;5101656;28;20470;-68
2023/04/29 09:40:35;;;;;;;21.57;19.27;;;;;;;;;;5105749;28;20574;-67
2023/04/29 09:43:03;;;;;;;21.67;19.37;;;;;;;;;;5107092;28;20449;-67
2023/04/29 09:45:33;;;;;;;19.30;16.80;;;;;;;;;;5098691;28;20534;-67
2023/04/29 09:48:01;;;;;;;22.23;19.27;;;;;;;;;;5099214;28;20951;-69
2023/04/29 09:50:28;;;;;;;20.07;17.50;;;;;;;;;;5097788;28;21149;-68
2023/04/29 09:52:55;;;;;;;22.73;17.67;;;;;;;;;;5101175;28;20519;-67
2023/04/29 09:55:23;;;;;;;20.93;18.03;;;;;;;;;;5098885;28;20513;-66
2023/04/29 09:57:49;;;;;;;20.63;18.43;;;;;;;;;;5100811;28;20551;-65
2023/04/29 10:00:16;;;;;;;17.93;16.03;;;;;;;;;;5097163;28;20484;-67
2023/04/29 10:02:45;;;;;;;21.47;17.30;;;;;;;;;;5097204;28;20534;-67
2023/04/29 10:05:12;;;;;;;22.43;18.40;;;;;;;;;;5101746;28;20450;-67
2023/04/29 10:07:39;;;;;;;22.47;17.53;;;;;;;;;;5100564;28;20510;-67
2023/04/29 10:10:07;;;;;;;22.33;17.07;;;;;;;;;;5097900;28;20450;-65
2023/04/29 10:12:35;;;;;;;20.13;17.10;;;;;;;;;;5104437;28;20467;-65
2023/04/29 10:15:03;;;;;;;20.53;17.10;;;;;;;;;;5101579;28;20528;-66
2023/04/29 10:17:35;;;;;;;20.27;17.90;;;;;;;;;;5101720;28;20478;-67
2023/04/29 10:20:04;;;;;;;17.67;15.80;;;;;;;;;;5094150;28;20469;-65
2023/04/29 10:22:33;;;;;;;16.87;15.13;;;;;;;;;;5102439;28;20546;-65
2023/04/29 10:25:01;;;;;;;16.67;14.80;;;;;;;;;;5101482;28;20451;-67
2023/04/29 10:27:27;;;;;;;17.93;15.97;;;;;;;;;;5105931;28;20483;-65
2023/04/29 10:29:56;;;;;;;18.80;16.40;;;;;;;;;;5105443;28;20650;-67
2023/04/29 10:32:23;;;;;;;21.03;17.73;;;;;;;;;;5102508;28;20491;-66
2023/04/29 10:34:51;;;;;;;20.23;17.50;;;;;;;;;;5101134;28;20493;-66
2023/04/29 10:37:18;;;;;;;21.77;17.00;;;;;;;;;;5102670;28;20478;-66
2023/04/29 10:39:50;;;;;;;22.10;18.10;;;;;;;;;;5101652;28;20483;-66
2023/04/29 10:42:20;;;;;;;21.53;16.77;;;;;;;;;;5101136;28;21082;-66
2023/04/29 10:45:05;;;;;;;21.83;17.67;;;;;;;;;;5100287;28;21015;-66
2023/04/29 10:47:33;;;;;;;18.63;16.63;;;;;;;;;;5081712;28;20468;-66
2023/04/29 10:50:04;;;;;;;21.13;17.30;;;;;;;;;;5077064;28;20448;-66
2023/04/29 10:52:30;;;;;;;19.47;16.47;;;;;;;;;;5081099;28;20645;-66
2023/04/29 10:55:02;;;;;;;18.60;16.70;;;;;;;;;;5079589;28;21057;-66
2023/04/29 10:57:29;;;;;;;22.27;18.03;;;;;;;;;;5095050;28;20495;-66
2023/04/29 10:59:56;;;;;;;18.30;15.80;;;;;;;;;;5100467;28;20448;-65
2023/04/29 11:02:22;;;;;;;19.60;16.97;;;;;;;;;;5106713;28;20479;-65
2023/04/29 11:05:09;;;;;;;20.10;17.00;;;;;;;;;;5100226;28;20508;-67
2023/04/29 11:07:36;;;;;;;19.30;16.20;;;;;;;;;;5095271;28;20597;-63
2023/04/29 11:10:02;;;;;;;20.03;16.50;;;;;;;;;;5102734;28;20509;-64
2023/04/29 11:12:29;;;;;;;17.97;16.07;;;;;;;;;;5108733;28;20502;-64
2023/04/29 11:15:01;;;;;;;18.77;16.87;;;;;;;;;;5102417;28;20494;-65
2023/04/29 11:17:35;;;;;;;18.93;16.30;;;;;;;;;;5107466;28;20504;-65
2023/04/29 11:20:02;;;;;;;15.87;14.27;;;;;;;;;;5100008;28;20463;-63
2023/04/29 11:22:32;;;;;;;18.20;15.20;;;;;;;;;;5101653;27;21076;-66
2023/04/29 11:25:00;;;;;;;16.27;14.40;;;;;;;;;;5101091;28;20483;-66
2023/04/29 11:27:27;;;;;;;15.60;14.03;;;;;;;;;;5099163;28;20543;-70
2023/04/29 11:29:58;;;;;;;16.30;14.60;;;;;;;;;;5100559;28;20443;-70
2023/04/29 11:32:24;;;;;;;17.97;16.17;;;;;;;;;;5102619;27;20959;-70
2023/04/29 11:37:59;;;;;;;16.50;13.50;;;;;;;;;;5085474;28;20563;-70
2023/04/29 11:40:26;;;;;;;17.50;15.73;;;;;;;;;;5098185;28;20873;-70
2023/04/29 11:42:52;;;;;;;17.17;14.37;;;;;;;;;;5101632;28;20442;-70
2023/04/29 11:45:19;;;;;;;17.73;14.87;;;;;;;;;;5100844;28;20455;-69
2023/04/29 11:47:46;;;;;;;18.00;13.70;;;;;;;;;;5101695;28;20486;-69
2023/04/29 11:50:15;;;;;;;22.30;14.10;;;;;;;;;;5098969;28;20469;-70
2023/04/29 11:52:43;;;;;;;17.83;14.73;;;;;;;;;;5101674;28;20451;-71
2023/04/29 11:55:11;;;;;;;14.13;12.10;;;;;;;;;;5099629;28;20595;-69
2023/04/29 11:57:39;;;;;;;16.07;13.17;;;;;;;;;;5098648;28;20451;-70
2023/04/29 12:00:08;;;;;;;15.30;13.70;;;;;;;;;;5099731;28;20485;-70
2023/04/29 12:02:35;;;;;;;16.33;13.57;;;;;;;;;;5090498;28;20554;-70
2023/04/29 12:05:06;;;;;;;16.70;13.63;;;;;;;;;;5100263;28;20463;-70
2023/04/29 12:07:32;;;;;;;14.87;13.37;;;;;;;;;;5075099;28;20480;-70
2023/04/29 12:09:58;;;;;;;14.27;12.87;;;;;;;;;;5078837;28;20502;-71
2023/04/29 12:12:28;;;;;;;14.03;12.73;;;;;;;;;;5102903;28;20580;-70
2023/04/29 12:14:54;;;;;;;14.30;12.73;;;;;;;;;;5100894;28;20487;-71
2023/04/29 12:17:21;;;;;;;15.67;13.93;;;;;;;;;;5101128;28;20570;-71
2023/04/29 12:19:48;;;;;;;18.43;14.20;;;;;;;;;;5102212;28;20562;-71
2023/04/29 12:22:14;;;;;;;17.90;15.43;;;;;;;;;;5100103;27;20490;-71
2023/04/29 12:24:41;;;;;;;16.13;14.30;;;;;;;;;;5104669;28;21032;-71
2023/04/29 12:27:08;;;;;;;20.70;14.30;;;;;;;;;;5104120;28;20494;-71
2023/04/29 12:29:37;;;;;;;18.10;14.50;;;;;;;;;;5102960;28;20898;-71
2023/04/29 12:32:03;;;;;;;15.30;13.20;;;;;;;;;;5105805;28;20507;-72
2023/04/29 12:34:31;;;;;;;15.23;13.37;;;;;;;;;;5102780;28;20475;-71
2023/04/29 12:36:58;;;;;;;14.77;11.03;;;;;;;;;;5105030;28;20505;-70
2023/04/29 12:39:29;;;;;;;12.87;11.57;;;;;;;;;;5102688;28;20498;-70
2023/04/29 12:41:57;;;;;;;13.83;11.50;;;;;;;;;;5101365;28;21080;-70
2023/04/29 12:44:24;;;;;;;14.17;11.00;;;;;;;;;;5098930;28;20508;-71
2023/04/29 12:46:52;;;;;;;12.30;11.00;;;;;;;;;;5104915;28;20514;-71
2023/04/29 12:49:20;;;;;;;15.07;13.00;;;;;;;;;;5106019;28;20475;-70
2023/04/29 12:51:46;;;;;;;13.33;11.93;;;;;;;;;;5110936;28;20478;-71
2023/04/29 12:54:13;;;;;;;15.00;12.90;;;;;;;;;;5107113;28;20510;-71
2023/04/29 12:56:40;;;;;;;14.17;11.57;;;;;;;;;;5102059;28;20498;-70
2023/04/29 12:59:07;;;;;;;14.43;12.13;;;;;;;;;;5104239;28;20979;-71
2023/04/29 13:01:33;;;;;;;12.87;10.60;;;;;;;;;;5106950;28;20499;-71
2023/04/29 13:04:01;;;;;;;13.03;10.87;;;;;;;;;;5103526;28;20473;-71
2023/04/29 13:06:28;;;;;;;13.87;10.17;;;;;;;;;;5106325;28;20506;-71
2023/04/29 13:08:54;;;;;;;12.70;10.50;;;;;;;;;;5102731;28;20486;-71
2023/04/29 13:11:21;;;;;;;13.60;10.60;;;;;;;;;;5108873;28;20479;-71
2023/04/29 13:13:47;;;;;;;12.20;10.57;;;;;;;;;;5107778;28;20482;-71
2023/04/29 13:16:13;;;;;;;12.47;10.97;;;;;;;;;;5108966;28;20489;-71
2023/04/29 13:18:40;;;;;;;14.33;11.43;;;;;;;;;;5100129;28;20696;-71
2023/04/29 13:21:08;;;;;;;18.17;10.97;;;;;;;;;;5112996;28;20478;-70
2023/04/29 13:23:34;;;;;;;14.47;11.00;;;;;;;;;;5103351;28;20491;-70
2023/04/29 13:26:01;;;;;;;12.73;9.80;;;;;;;;;;5102307;28;20478;-70
2023/04/29 13:28:27;;;;;;;13.87;10.27;;;;;;;;;;5104778;28;20492;-70
2023/04/29 13:30:54;;;;;;;11.80;10.53;;;;;;;;;;5102896;28;20475;-70
2023/04/29 13:33:20;;;;;;;11.33;9.17;;;;;;;;;;5101669;28;20482;-71
2023/04/29 13:35:48;;;;;;;11.83;9.07;;;;;;;;;;5110918;28;20560;-70
2023/04/29 13:38:16;;;;;;;11.70;9.63;;;;;;;;;;5102232;28;20447;-70
2023/04/29 13:40:43;;;;;;;9.83;8.83;;;;;;;;;;5103843;28;20482;-71
2023/04/29 13:43:09;;;;;;;11.30;9.40;;;;;;;;;;5101760;28;20450;-70
2023/04/29 13:45:35;;;;;;;11.77;10.57;;;;;;;;;;5101553;28;20529;-69
2023/04/29 13:48:02;;;;;;;13.00;10.20;;;;;;;;;;5111771;28;20558;-70
2023/04/29 13:50:29;;;;;;;13.00;10.30;;;;;;;;;;5103932;28;20554;-69
2023/04/29 13:52:55;;;;;;;13.40;10.90;;;;;;;;;;5110470;28;20471;-69
2023/04/29 13:55:23;;;;;;;13.03;10.07;;;;;;;;;;5095679;28;20512;-70
2023/04/29 13:57:50;;;;;;;13.33;10.70;;;;;;;;;;5099634;28;20451;-69
2023/04/29 14:00:17;;;;;;;12.43;10.90;;;;;;;;;;5105691;28;20466;-69
2023/04/29 14:02:43;;;;;;;11.23;9.97;;;;;;;;;;5114418;28;20471;-69
2023/04/29 14:05:09;;;;;;;10.87;9.67;;;;;;;;;;5102024;28;20479;-70
2023/04/29 14:07:36;;;;;;;12.03;9.00;;;;;;;;;;5105486;28;20630;-70
2023/04/29 14:10:02;;;;;;;11.30;8.37;;;;;;;;;;5101111;28;20493;-70
2023/04/29 14:12:31;;;;;;;11.30;8.00;;;;;;;;;;5105947;28;20490;-70
2023/04/29 14:14:57;;;;;;;11.23;8.70;;;;;;;;;;5105101;28;20522;-69
2023/04/29 14:17:24;;;;;;;10.70;7.90;;;;;;;;;;5108450;28;20474;-69
2023/04/29 14:19:52;;;;;;;10.53;8.67;;;;;;;;;;5102010;28;20523;-70
2023/04/29 14:22:18;;;;;;;10.30;8.77;;;;;;;;;;5107142;28;20510;-70